createdAt,value
2023-01-11T00:00:19.504Z,76
2023-01-11T00:01:26.659Z,76
2023-01-11T00:02:33.812Z,76
2023-01-11T00:03:40.854Z,76
2023-01-11T00:04:48.068Z,76
2023-01-11T00:05:54.586Z,77
2023-01-11T00:07:01.651Z,76
2023-01-11T00:08:08.818Z,76
2023-01-11T00:09:15.930Z,76
2023-01-11T00:10:23.012Z,76
2023-01-11T00:11:33.679Z,76
2023-01-11T00:12:36.693Z,76
2023-01-11T00:13:43.778Z,76
2023-01-11T00:14:50.905Z,77
2023-01-11T00:15:58.096Z,77
2023-01-11T00:17:04.599Z,77
2023-01-11T00:18:11.617Z,78
2023-01-11T00:19:18.844Z,78
2023-01-11T00:20:25.999Z,78
2023-01-11T00:21:32.466Z,79
2023-01-11T00:22:39.729Z,79
2023-01-11T00:23:46.764Z,79
2023-01-11T00:24:53.731Z,80
2023-01-11T00:26:00.933Z,80
2023-01-11T00:27:07.470Z,80
2023-01-11T00:28:14.599Z,80
2023-01-11T00:29:21.661Z,80
2023-01-11T00:30:28.800Z,80
2023-01-11T00:31:36.037Z,80
2023-01-11T00:32:42.998Z,81
2023-01-11T00:33:49.612Z,81
2023-01-11T00:36:03.856Z,81
2023-01-11T00:37:10.848Z,81
2023-01-11T00:38:17.510Z,81
2023-01-11T00:39:24.627Z,81
2023-01-11T00:40:31.713Z,81
2023-01-11T00:41:38.841Z,81
2023-01-11T00:42:46.011Z,81
2023-01-11T00:43:52.447Z,81
2023-01-11T00:44:59.641Z,80
2023-01-11T00:46:06.728Z,80
2023-01-11T00:49:27.529Z,80
2023-01-11T00:50:34.647Z,80
2023-01-11T00:51:41.805Z,80
2023-01-11T00:52:48.905Z,80
2023-01-11T00:53:55.954Z,80
2023-01-11T00:55:02.506Z,80
2023-01-11T00:56:09.668Z,80
2023-01-11T00:57:16.696Z,80
2023-01-11T00:58:23.778Z,80
2023-01-11T00:59:30.946Z,80
2023-01-11T01:00:37.484Z,80
2023-01-11T01:01:44.763Z,80
2023-01-11T01:03:58.935Z,79
2023-01-11T01:05:05.922Z,79
2023-01-11T01:06:12.519Z,79
2023-01-11T01:07:19.705Z,79
2023-01-11T01:08:26.758Z,79
2023-01-11T01:09:33.821Z,79
2023-01-11T01:10:40.900Z,79
2023-01-11T01:11:47.632Z,78
2023-01-11T01:12:54.666Z,78
2023-01-11T01:14:01.702Z,78
2023-01-11T01:15:08.863Z,78
2023-01-11T01:16:16.050Z,78
2023-01-11T01:17:22.576Z,78
2023-01-11T01:18:29.672Z,78
2023-01-11T01:19:36.740Z,78
2023-01-11T01:20:43.857Z,78
2023-01-11T01:21:51.017Z,78
2023-01-11T01:22:57.562Z,78
2023-01-11T01:24:04.672Z,78
2023-01-11T01:25:11.741Z,78
2023-01-11T01:26:18.888Z,78
2023-01-11T01:27:26.064Z,78
2023-01-11T01:28:32.511Z,78
2023-01-11T01:29:39.646Z,78
2023-01-11T01:31:53.864Z,78
2023-01-11T01:33:00.989Z,78
2023-01-11T01:34:07.547Z,78
2023-01-11T01:35:14.691Z,77
2023-01-11T01:36:21.768Z,77
2023-01-11T01:37:28.956Z,77
2023-01-11T01:38:35.506Z,76
2023-01-11T01:39:42.609Z,76
2023-01-11T01:40:49.682Z,76
2023-01-11T01:41:56.809Z,76
2023-01-11T01:43:03.843Z,75
2023-01-11T01:44:10.463Z,75
2023-01-11T01:45:17.600Z,75
2023-01-11T01:46:24.733Z,75
2023-01-11T01:47:31.832Z,75
2023-01-11T01:48:38.920Z,75
2023-01-11T01:49:45.469Z,75
2023-01-11T01:50:52.608Z,75
2023-01-11T01:53:06.828Z,75
2023-01-11T01:54:13.857Z,75
2023-01-11T01:55:20.472Z,75
2023-01-11T01:56:27.629Z,75
2023-01-11T01:57:34.758Z,75
2023-01-11T01:58:41.752Z,75
2023-01-11T01:59:48.957Z,75
2023-01-11T02:00:55.487Z,75
2023-01-11T02:02:02.643Z,76
2023-01-11T02:03:09.817Z,76
2023-01-11T02:04:16.800Z,76
2023-01-11T02:05:24.436Z,76
2023-01-11T02:06:30.588Z,76
2023-01-11T02:07:37.703Z,76
2023-01-11T02:08:44.736Z,77
2023-01-11T02:09:51.828Z,77
2023-01-11T02:10:58.935Z,77
2023-01-11T02:12:05.555Z,77
2023-01-11T02:13:12.625Z,77
2023-01-11T02:14:19.724Z,77
2023-01-11T02:16:33.942Z,77
2023-01-11T02:17:40.528Z,77
2023-01-11T02:18:47.683Z,77
2023-01-11T02:19:54.752Z,77
2023-01-11T02:21:01.888Z,77
2023-01-11T02:22:08.936Z,77
2023-01-11T02:23:15.552Z,77
2023-01-11T02:24:22.634Z,77
2023-01-11T02:25:29.752Z,76
2023-01-11T02:26:36.871Z,76
2023-01-11T02:27:43.967Z,77
2023-01-11T02:28:50.542Z,77
2023-01-11T02:29:57.677Z,77
2023-01-11T02:31:04.819Z,77
2023-01-11T02:32:11.893Z,77
2023-01-11T02:33:18.422Z,77
2023-01-11T02:34:25.575Z,77
2023-01-11T02:35:32.646Z,77
2023-01-11T02:36:39.797Z,77
2023-01-11T02:37:46.912Z,77
2023-01-11T02:38:53.972Z,77
2023-01-11T02:40:00.578Z,77
2023-01-11T02:41:07.650Z,78
2023-01-11T02:42:14.797Z,78
2023-01-11T02:43:21.995Z,78
2023-01-11T02:44:28.995Z,78
2023-01-11T02:45:35.592Z,78
2023-01-11T02:46:42.676Z,78
2023-01-11T02:47:49.770Z,78
2023-01-11T02:48:56.861Z,78
2023-01-11T02:50:03.982Z,78
2023-01-11T02:51:10.565Z,78
2023-01-11T02:52:17.782Z,78
2023-01-11T02:53:24.793Z,78
2023-01-11T02:54:31.898Z,78
2023-01-11T02:56:45.601Z,78
2023-01-11T02:57:52.643Z,78
2023-01-11T02:58:59.776Z,78
2023-01-11T03:00:06.875Z,78
2023-01-11T03:02:20.609Z,78
2023-01-11T03:03:27.752Z,78
2023-01-11T03:04:34.809Z,78
2023-01-11T03:05:41.872Z,78
2023-01-11T03:06:48.520Z,78
2023-01-11T03:07:55.574Z,78
2023-01-11T03:09:02.681Z,78
2023-01-11T03:10:09.834Z,78
2023-01-11T03:11:16.934Z,79
2023-01-11T03:12:23.546Z,78
2023-01-11T03:13:30.560Z,79
2023-01-11T03:14:38.216Z,79
2023-01-11T03:15:44.855Z,79
2023-01-11T03:16:51.912Z,79
2023-01-11T03:17:58.627Z,79
2023-01-11T03:19:05.618Z,79
2023-01-11T03:20:12.773Z,79
2023-01-11T03:21:19.906Z,80
2023-01-11T03:22:26.973Z,79
2023-01-11T03:23:33.603Z,79
2023-01-11T03:24:40.583Z,79
2023-01-11T03:25:47.703Z,80
2023-01-11T03:26:54.795Z,80
2023-01-11T03:28:01.933Z,80
2023-01-11T03:30:15.751Z,79
2023-01-11T03:31:22.828Z,79
2023-01-11T03:32:29.848Z,79
2023-01-11T03:33:36.973Z,79
2023-01-11T03:34:43.592Z,79
2023-01-11T03:35:50.663Z,78
2023-01-11T03:36:57.716Z,78
2023-01-11T03:38:04.861Z,78
2023-01-11T03:39:11.889Z,78
2023-01-11T03:40:19.160Z,78
2023-01-11T03:41:25.731Z,78
2023-01-11T03:42:32.701Z,78
2023-01-11T03:44:46.980Z,78
2023-01-11T03:45:53.485Z,78
2023-01-11T03:47:00.785Z,78
2023-01-11T03:48:07.258Z,78
2023-01-11T03:49:14.831Z,78
2023-01-11T03:50:21.952Z,78
2023-01-11T03:51:28.553Z,78
2023-01-11T03:52:35.660Z,78
2023-01-11T03:53:42.749Z,78
2023-01-11T03:54:49.841Z,78
2023-01-11T03:55:56.998Z,78
2023-01-11T03:57:03.581Z,78
2023-01-11T03:58:10.641Z,78
2023-01-11T04:00:24.905Z,79
2023-01-11T04:01:31.990Z,79
2023-01-11T04:02:38.601Z,79
2023-01-11T04:03:45.700Z,79
2023-01-11T04:04:52.754Z,79
2023-01-11T04:05:59.911Z,79
2023-01-11T04:07:07.019Z,79
2023-01-11T04:08:13.644Z,79
2023-01-11T04:09:20.659Z,79
2023-01-11T04:10:27.781Z,79
2023-01-11T04:11:34.906Z,80
2023-01-11T04:12:41.996Z,79
2023-01-11T04:13:48.591Z,80
2023-01-11T04:14:55.687Z,80
2023-01-11T04:16:02.878Z,80
2023-01-11T04:17:09.987Z,80
2023-01-11T04:18:17.538Z,80
2023-01-11T04:19:23.656Z,80
2023-01-11T04:20:30.690Z,80
2023-01-11T04:21:37.812Z,80
2023-01-11T04:22:44.943Z,81
2023-01-11T04:23:51.473Z,81
2023-01-11T04:24:58.611Z,81
2023-01-11T04:26:05.734Z,81
2023-01-11T04:27:12.782Z,81
2023-01-11T04:28:19.886Z,81
2023-01-11T04:29:26.517Z,81
2023-01-11T04:30:33.619Z,81
2023-01-11T04:31:40.235Z,81
2023-01-11T04:32:47.893Z,81
2023-01-11T04:33:54.881Z,81
2023-01-11T04:35:01.514Z,82
2023-01-11T04:36:08.631Z,82
2023-01-11T04:37:15.698Z,82
2023-01-11T04:38:22.810Z,82
2023-01-11T04:39:29.955Z,81
2023-01-11T04:40:36.489Z,81
2023-01-11T04:41:43.594Z,81
2023-01-11T04:42:50.761Z,81
2023-01-11T04:43:57.819Z,81
2023-01-11T04:45:04.881Z,81
2023-01-11T04:46:11.479Z,81
2023-01-11T04:47:18.650Z,81
2023-01-11T04:48:25.751Z,81
2023-01-11T04:49:32.844Z,81
2023-01-11T04:50:40.041Z,81
2023-01-11T04:51:46.531Z,80
2023-01-11T04:52:53.632Z,80
2023-01-11T04:54:00.692Z,80
2023-01-11T04:55:07.866Z,80
2023-01-11T04:56:14.942Z,80
2023-01-11T04:57:21.527Z,80
2023-01-11T04:58:28.671Z,80
2023-01-11T05:00:42.907Z,80
2023-01-11T05:01:49.984Z,80
2023-01-11T05:04:03.789Z,80
2023-01-11T05:05:10.772Z,80
2023-01-11T05:06:17.836Z,80
2023-01-11T05:07:24.995Z,81
2023-01-11T05:08:31.544Z,81
2023-01-11T05:09:38.683Z,81
2023-01-11T05:10:45.778Z,82
2023-01-11T05:13:00.026Z,82
2023-01-11T05:14:06.569Z,82
2023-01-11T05:15:13.663Z,83
2023-01-11T05:16:20.835Z,83
2023-01-11T05:17:27.953Z,83
2023-01-11T05:18:35.054Z,83
2023-01-11T05:19:41.512Z,83
2023-01-11T05:20:48.648Z,83
2023-01-11T05:21:56.282Z,83
2023-01-11T05:23:02.874Z,83
2023-01-11T05:24:09.995Z,84
2023-01-11T05:25:16.652Z,84
2023-01-11T05:26:23.667Z,84
2023-01-11T05:28:37.953Z,84
2023-01-11T05:29:45.020Z,84
2023-01-11T05:30:51.590Z,85
2023-01-11T05:31:58.766Z,85
2023-01-11T05:33:05.781Z,85
2023-01-11T05:34:12.891Z,85
2023-01-11T05:35:20.033Z,85
2023-01-11T05:36:26.599Z,85
2023-01-11T05:37:33.771Z,85
2023-01-11T05:38:40.792Z,85
2023-01-11T05:39:47.925Z,85
2023-01-11T05:40:55.056Z,85
2023-01-11T05:42:01.554Z,85
2023-01-11T05:43:08.742Z,85
2023-01-11T05:44:15.850Z,85
2023-01-11T05:45:22.870Z,85
2023-01-11T05:46:30.032Z,86
2023-01-11T05:47:36.671Z,86
2023-01-11T05:48:43.653Z,86
2023-01-11T05:49:50.784Z,86
2023-01-11T05:50:59.664Z,86
2023-01-11T05:52:04.522Z,86
2023-01-11T05:52:04.567Z,86
2023-01-11T05:53:11.655Z,86
2023-01-11T05:54:18.760Z,86
2023-01-11T05:55:25.902Z,86
2023-01-11T05:56:32.920Z,86
2023-01-11T05:57:39.504Z,86
2023-01-11T05:58:46.599Z,86
2023-01-11T05:59:53.681Z,86
2023-01-11T06:01:00.777Z,86
2023-01-11T06:02:08.096Z,86
2023-01-11T06:03:14.637Z,86
2023-01-11T06:04:21.614Z,86
2023-01-11T06:05:28.752Z,86
2023-01-11T06:07:42.932Z,86
2023-01-11T06:08:49.548Z,86
2023-01-11T06:09:56.612Z,86
2023-01-11T06:11:03.738Z,86
2023-01-11T06:12:10.845Z,86
2023-01-11T06:13:18.035Z,86
2023-01-11T06:14:24.576Z,86
2023-01-11T06:15:31.622Z,86
2023-01-11T06:16:38.903Z,86
2023-01-11T06:17:45.919Z,86
2023-01-11T06:18:52.960Z,87
2023-01-11T06:19:59.652Z,87
2023-01-11T06:21:06.668Z,87
2023-01-11T06:22:13.695Z,87
2023-01-11T06:23:20.871Z,87
2023-01-11T06:24:27.983Z,87
2023-01-11T06:25:35.629Z,87
2023-01-11T06:26:41.660Z,87
2023-01-11T06:27:48.807Z,87
2023-01-11T06:28:55.837Z,87
2023-01-11T06:30:02.447Z,87
2023-01-11T06:31:09.784Z,87
2023-01-11T06:32:16.732Z,87
2023-01-11T06:33:23.742Z,87
2023-01-11T06:34:30.832Z,87
2023-01-11T06:35:37.955Z,87
2023-01-11T06:36:44.554Z,87
2023-01-11T06:37:51.703Z,87
2023-01-11T06:38:58.823Z,87
2023-01-11T06:41:12.993Z,87
2023-01-11T06:42:19.597Z,87
2023-01-11T06:43:26.680Z,87
2023-01-11T06:44:33.763Z,87
2023-01-11T06:45:40.889Z,87
2023-01-11T06:46:47.986Z,87
2023-01-11T06:47:54.671Z,87
2023-01-11T06:49:01.676Z,87
2023-01-11T06:50:08.809Z,87
2023-01-11T06:51:15.911Z,87
2023-01-11T06:52:23.012Z,87
2023-01-11T06:53:29.612Z,87
2023-01-11T06:54:36.754Z,87
2023-01-11T06:55:43.801Z,87
2023-01-11T06:56:51.042Z,87
2023-01-11T06:59:05.818Z,87
2023-01-11T07:00:11.665Z,87
2023-01-11T07:01:18.928Z,87
2023-01-11T07:02:25.922Z,87
2023-01-11T07:03:33.007Z,87
2023-01-11T07:04:39.635Z,87
2023-01-11T07:05:46.737Z,87
2023-01-11T07:06:53.825Z,87
2023-01-11T07:08:01.035Z,87
2023-01-11T07:09:08.056Z,87
2023-01-11T07:11:21.787Z,86
2023-01-11T07:12:28.895Z,86
2023-01-11T07:13:35.935Z,86
2023-01-11T07:14:42.484Z,86
2023-01-11T07:15:49.652Z,86
2023-01-11T07:16:56.720Z,86
2023-01-11T07:18:03.879Z,86
2023-01-11T07:19:10.878Z,86
2023-01-11T07:20:19.322Z,86
2023-01-11T07:21:28.141Z,86
2023-01-11T07:22:31.778Z,86
2023-01-11T07:23:38.922Z,86
2023-01-11T07:24:48.424Z,86
2023-01-11T07:26:59.623Z,87
2023-01-11T07:28:06.727Z,87
2023-01-11T07:29:14.432Z,87
2023-01-11T07:30:21.015Z,87
2023-01-11T07:31:27.702Z,87
2023-01-11T07:32:34.618Z,87
2023-01-11T07:33:41.743Z,87
2023-01-11T07:34:48.900Z,87
2023-01-11T07:35:55.979Z,87
2023-01-11T07:37:02.478Z,87
2023-01-11T07:38:09.672Z,86
2023-01-11T07:39:16.781Z,86
2023-01-11T07:40:23.919Z,86
2023-01-11T07:41:31.064Z,86
2023-01-11T07:42:37.522Z,86
2023-01-11T07:43:44.631Z,86
2023-01-11T07:44:51.767Z,86
2023-01-11T07:45:59.103Z,86
2023-01-11T07:47:06.104Z,86
2023-01-11T07:48:13.060Z,86
2023-01-11T07:49:19.677Z,86
2023-01-11T07:50:26.798Z,86
2023-01-11T07:51:33.912Z,86
2023-01-11T07:52:40.964Z,86
2023-01-11T07:54:54.717Z,86
2023-01-11T07:56:01.735Z,86
2023-01-11T07:57:08.946Z,86
2023-01-11T07:58:15.972Z,86
2023-01-11T07:59:22.565Z,86
2023-01-11T08:00:29.824Z,86
2023-01-11T08:01:36.762Z,86
2023-01-11T08:02:44.003Z,86
2023-01-11T08:03:51.107Z,86
2023-01-11T08:04:57.572Z,86
2023-01-11T08:06:04.696Z,86
2023-01-11T08:07:11.763Z,86
2023-01-11T08:09:26.029Z,86
2023-01-11T08:10:32.581Z,86
2023-01-11T08:11:39.688Z,86
2023-01-11T08:12:46.932Z,85
2023-01-11T08:15:00.952Z,85
2023-01-11T08:16:07.677Z,84
2023-01-11T08:17:14.712Z,84
2023-01-11T08:18:22.017Z,85
2023-01-11T08:19:28.924Z,85
2023-01-11T08:20:36.044Z,86
2023-01-11T08:21:42.605Z,86
2023-01-11T08:22:49.801Z,86
2023-01-11T08:23:56.825Z,86
2023-01-11T08:25:04.003Z,87
2023-01-11T08:26:10.511Z,87
2023-01-11T08:27:17.646Z,87
2023-01-11T08:28:24.824Z,87
2023-01-11T08:29:31.853Z,87
2023-01-11T08:30:38.920Z,87
2023-01-11T08:31:45.561Z,87
2023-01-11T08:32:53.241Z,87
2023-01-11T08:33:59.694Z,87
2023-01-11T08:35:06.833Z,87
2023-01-11T08:36:13.949Z,87
2023-01-11T08:37:20.479Z,87
2023-01-11T08:38:27.567Z,87
2023-01-11T08:39:34.739Z,87
2023-01-11T08:40:41.790Z,87
2023-01-11T08:41:48.905Z,87
2023-01-11T08:42:55.600Z,87
2023-01-11T08:44:02.575Z,87
2023-01-11T08:45:09.772Z,87
2023-01-11T08:46:16.914Z,87
2023-01-11T08:47:23.960Z,87
2023-01-11T08:48:30.534Z,87
2023-01-11T08:50:44.784Z,87
2023-01-11T08:51:51.865Z,87
2023-01-11T08:52:59.035Z,87
2023-01-11T08:54:05.559Z,87
2023-01-11T08:55:12.762Z,87
2023-01-11T08:56:19.737Z,87
2023-01-11T08:57:26.837Z,87
2023-01-11T08:58:34.028Z,87
2023-01-11T08:59:41.059Z,87
2023-01-11T09:00:47.656Z,87
2023-01-11T09:01:54.833Z,87
2023-01-11T09:03:01.986Z,87
2023-01-11T09:04:19.335Z,87
2023-01-11T09:05:18.093Z,87
2023-01-11T09:06:22.719Z,87
2023-01-11T09:07:29.823Z,87
2023-01-11T09:08:36.952Z,87
2023-01-11T09:09:43.993Z,87
2023-01-11T09:10:50.557Z,87
2023-01-11T09:11:57.716Z,87
2023-01-11T09:13:04.856Z,87
2023-01-11T09:14:11.875Z,87
2023-01-11T09:15:19.010Z,87
2023-01-11T09:16:25.656Z,87
2023-01-11T09:17:32.735Z,87
2023-01-11T09:18:39.817Z,86
2023-01-11T09:19:46.893Z,86
2023-01-11T09:20:53.994Z,86
2023-01-11T09:22:00.593Z,86
2023-01-11T09:23:07.751Z,86
2023-01-11T09:24:14.813Z,86
2023-01-11T09:25:21.885Z,86
2023-01-11T09:26:28.972Z,86
2023-01-11T09:27:35.664Z,86
2023-01-11T09:28:42.686Z,86
2023-01-11T09:29:49.819Z,86
2023-01-11T09:30:57.001Z,86
2023-01-11T09:32:03.958Z,86
2023-01-11T09:33:10.637Z,86
2023-01-11T09:34:17.728Z,86
2023-01-11T09:35:24.785Z,86
2023-01-11T09:37:39.057Z,86
2023-01-11T09:38:45.598Z,86
2023-01-11T09:39:52.714Z,86
2023-01-11T09:40:59.845Z,86
2023-01-11T09:42:06.946Z,86
2023-01-11T09:43:14.046Z,86
2023-01-11T09:44:20.593Z,86
2023-01-11T09:45:27.699Z,86
2023-01-11T09:46:34.885Z,86
2023-01-11T09:47:41.896Z,86
2023-01-11T09:48:49.074Z,86
2023-01-11T09:49:55.642Z,86
2023-01-11T09:51:02.727Z,86
2023-01-11T09:52:09.358Z,86
2023-01-11T09:53:17.001Z,86
2023-01-11T09:54:23.516Z,85
2023-01-11T09:55:30.630Z,85
2023-01-11T09:56:37.745Z,86
2023-01-11T09:57:44.933Z,85
2023-01-11T09:58:51.922Z,85
2023-01-11T09:59:59.022Z,85
2023-01-11T10:01:05.720Z,85
2023-01-11T10:02:12.708Z,85
2023-01-11T10:03:19.895Z,85
2023-01-11T10:04:26.975Z,85
2023-01-11T10:05:33.526Z,85
2023-01-11T10:06:40.629Z,86
2023-01-11T10:07:47.877Z,86
2023-01-11T10:18:27.734Z,87
2023-01-11T10:18:29.107Z,87
2023-01-11T10:18:31.576Z,87
2023-01-11T10:18:32.540Z,87
2023-01-11T10:18:33.345Z,87
2023-01-11T10:22:18.546Z,87
2023-01-11T10:23:25.807Z,87
2023-01-11T10:24:32.713Z,87
2023-01-11T10:25:39.913Z,87
2023-01-11T10:26:47.071Z,87
2023-01-11T10:27:53.511Z,87
2023-01-11T10:29:00.700Z,87
2023-01-11T10:30:07.791Z,87
2023-01-11T10:31:14.922Z,87
2023-01-11T10:32:22.000Z,87
2023-01-11T10:33:28.604Z,87
2023-01-11T10:34:35.677Z,87
2023-01-11T10:35:42.775Z,87
2023-01-11T10:36:49.930Z,87
2023-01-11T10:37:57.021Z,87
2023-01-11T10:39:03.575Z,87
2023-01-11T10:40:11.206Z,87
2023-01-11T10:41:17.812Z,87
2023-01-11T10:42:25.056Z,87
2023-01-11T10:43:32.026Z,87
2023-01-11T10:44:38.653Z,88
2023-01-11T10:45:45.763Z,88
2023-01-11T10:46:52.786Z,88
2023-01-11T10:49:07.048Z,88
2023-01-11T10:50:13.549Z,88
2023-01-11T10:51:20.703Z,88
2023-01-11T10:52:27.810Z,88
2023-01-11T10:53:34.931Z,88
2023-01-11T10:54:43.287Z,88
2023-01-11T10:55:48.599Z,88
2023-01-11T10:57:02.783Z,88
2023-01-11T10:58:03.682Z,88
2023-01-11T10:59:09.449Z,88
2023-01-11T11:00:19.430Z,88
2023-01-11T11:01:23.654Z,88
2023-01-11T11:02:30.674Z,88
2023-01-11T11:03:37.884Z,88
2023-01-11T11:05:52.036Z,88
2023-01-11T11:06:58.667Z,88
2023-01-11T11:08:05.821Z,88
2023-01-11T11:09:12.814Z,88
2023-01-11T11:10:20.385Z,88
2023-01-11T11:11:27.012Z,88
2023-01-11T11:12:33.604Z,88
2023-01-11T11:13:43.228Z,88
2023-01-11T11:14:47.860Z,88
2023-01-11T11:17:02.031Z,87
2023-01-11T11:18:08.676Z,87
2023-01-11T11:19:15.853Z,87
2023-01-11T11:20:22.836Z,87
2023-01-11T11:21:29.996Z,87
2023-01-11T11:22:37.102Z,87
2023-01-11T11:23:43.703Z,87
2023-01-11T11:25:57.970Z,87
2023-01-11T11:27:05.036Z,88
2023-01-11T11:28:11.513Z,88
2023-01-11T11:29:18.694Z,88
2023-01-11T11:30:25.759Z,88
2023-01-11T11:31:32.961Z,88
2023-01-11T11:32:40.000Z,88
2023-01-11T11:33:47.071Z,89
2023-01-11T11:34:53.668Z,89
2023-01-11T11:36:00.707Z,89
2023-01-11T11:37:07.942Z,89
2023-01-11T11:38:15.000Z,89
2023-01-11T11:39:21.561Z,89
2023-01-11T11:40:28.691Z,89
2023-01-11T11:41:36.325Z,89
2023-01-11T11:42:42.855Z,89
2023-01-11T11:44:56.621Z,89
2023-01-11T11:46:03.849Z,89
2023-01-11T11:47:10.730Z,89
2023-01-11T11:48:18.001Z,88
2023-01-11T11:49:25.027Z,88
2023-01-11T11:50:44.430Z,88
2023-01-11T11:51:38.715Z,88
2023-01-11T11:52:45.840Z,88
2023-01-11T11:53:52.882Z,89
2023-01-11T11:54:59.940Z,89
2023-01-11T11:56:06.635Z,89
2023-01-11T11:57:13.727Z,89
2023-01-11T11:58:20.836Z,89
2023-01-11T11:59:27.883Z,89
2023-01-11T12:00:35.043Z,89
2023-01-11T12:01:41.569Z,89
2023-01-11T12:02:48.794Z,89
2023-01-11T12:03:55.843Z,89
2023-01-11T12:05:02.974Z,89
2023-01-11T12:06:10.065Z,89
2023-01-11T12:07:16.644Z,89
2023-01-11T12:08:23.717Z,89
2023-01-11T12:09:30.938Z,89
2023-01-11T12:10:37.942Z,89
2023-01-11T12:11:45.051Z,89
2023-01-11T12:12:51.679Z,89
2023-01-11T12:13:58.743Z,89
2023-01-11T12:15:05.887Z,88
2023-01-11T12:16:12.975Z,88
2023-01-11T12:17:20.065Z,88
2023-01-11T12:18:26.649Z,88
2023-01-11T12:19:33.701Z,88
2023-01-11T12:20:40.804Z,88
2023-01-11T12:21:47.394Z,88
2023-01-11T12:21:47.957Z,88
2023-01-11T12:22:55.093Z,88
2023-01-11T12:24:01.567Z,88
2023-01-11T12:25:08.725Z,88
2023-01-11T12:26:15.810Z,88
2023-01-11T12:27:22.939Z,88
2023-01-11T12:29:36.711Z,88
2023-01-11T12:30:43.746Z,88
2023-01-11T12:31:50.783Z,88
2023-01-11T12:34:05.087Z,88
2023-01-11T12:35:11.613Z,88
2023-01-11T12:36:18.763Z,88
2023-01-11T12:37:25.822Z,88
2023-01-11T12:38:32.945Z,88
2023-01-11T12:39:40.074Z,88
2023-01-11T12:40:46.726Z,88
2023-01-11T12:41:53.758Z,88
2023-01-11T12:43:00.799Z,88
2023-01-11T12:44:07.986Z,88
2023-01-11T12:45:15.074Z,88
2023-01-11T12:46:21.669Z,88
2023-01-11T12:47:29.338Z,88
2023-01-11T12:48:35.935Z,88
2023-01-11T12:49:42.990Z,88
2023-01-11T12:50:50.047Z,88
2023-01-11T12:51:56.743Z,88
2023-01-11T12:53:03.772Z,88
2023-01-11T12:54:10.889Z,88
2023-01-11T12:55:17.977Z,88
2023-01-11T12:56:24.626Z,88
2023-01-11T12:57:31.677Z,88
2023-01-11T12:58:38.853Z,88
2023-01-11T12:59:45.873Z,88
2023-01-11T13:00:52.980Z,88
2023-01-11T13:01:59.557Z,88
2023-01-11T13:03:06.709Z,88
2023-01-11T13:04:13.778Z,88
2023-01-11T13:05:20.865Z,88
2023-01-11T13:06:28.996Z,88
2023-01-11T13:07:34.592Z,88
2023-01-11T13:08:41.704Z,88
2023-01-11T13:09:49.336Z,88
2023-01-11T13:10:55.871Z,88
2023-01-11T13:12:02.972Z,88
2023-01-11T13:13:09.626Z,88
2023-01-11T13:14:16.722Z,88
2023-01-11T13:15:23.819Z,88
2023-01-11T13:16:30.907Z,88
2023-01-11T13:17:38.064Z,88
2023-01-11T13:18:44.663Z,88
2023-01-11T13:19:51.684Z,88
2023-01-11T13:21:01.717Z,88
2023-01-11T13:22:05.891Z,88
2023-01-11T13:23:13.014Z,87
2023-01-11T13:24:19.763Z,88
2023-01-11T13:25:26.717Z,88
2023-01-11T13:26:33.802Z,88
2023-01-11T13:27:40.861Z,88
2023-01-11T13:28:48.012Z,88
2023-01-11T13:29:54.724Z,88
2023-01-11T13:31:01.893Z,87
2023-01-11T13:33:15.907Z,87
2023-01-11T13:34:22.972Z,87
2023-01-11T13:35:29.679Z,87
2023-01-11T13:36:36.762Z,87
2023-01-11T13:37:43.826Z,87
2023-01-11T13:38:50.922Z,87
2023-01-11T13:39:58.042Z,87
2023-01-11T13:41:04.730Z,87
2023-01-11T13:42:11.758Z,87
2023-01-11T13:43:18.831Z,87
2023-01-11T13:44:25.443Z,87
2023-01-11T13:44:25.909Z,87
2023-01-11T13:45:33.047Z,87
2023-01-11T13:46:39.744Z,86
2023-01-11T13:47:46.830Z,86
2023-01-11T13:48:53.840Z,86
2023-01-11T13:50:00.903Z,86
2023-01-11T13:51:08.047Z,86
2023-01-11T13:52:14.752Z,86
2023-01-11T13:53:21.739Z,86
2023-01-11T13:54:28.903Z,86
2023-01-11T13:55:35.978Z,86
2023-01-11T13:56:42.999Z,86
2023-01-11T13:57:49.743Z,86
2023-01-11T13:58:56.786Z,86
2023-01-11T14:00:03.850Z,86
2023-01-11T14:02:18.068Z,86
2023-01-11T14:03:24.811Z,86
2023-01-11T14:04:31.740Z,86
2023-01-11T14:05:38.881Z,86
2023-01-11T14:06:45.982Z,86
2023-01-11T14:07:53.074Z,86
2023-01-11T14:08:59.700Z,86
2023-01-11T14:10:06.785Z,86
2023-01-11T14:11:13.853Z,86
2023-01-11T14:12:20.962Z,86
2023-01-11T14:13:28.111Z,86
2023-01-11T14:14:37.297Z,86
2023-01-11T14:15:41.800Z,85
2023-01-11T14:16:48.897Z,85
2023-01-11T14:17:56.057Z,85
2023-01-11T14:19:02.577Z,85
2023-01-11T14:20:12.013Z,85
2023-01-11T14:21:16.797Z,85
2023-01-11T14:22:23.836Z,85
2023-01-11T14:23:30.941Z,85
2023-01-11T14:24:37.570Z,85
2023-01-11T14:25:44.666Z,85
2023-01-11T14:26:51.763Z,85
2023-01-11T14:27:58.937Z,85
2023-01-11T14:29:06.010Z,85
2023-01-11T14:30:12.534Z,85
2023-01-11T14:31:19.794Z,85
2023-01-11T14:32:26.779Z,85
2023-01-11T14:33:33.902Z,85
2023-01-11T14:34:41.007Z,84
2023-01-11T14:36:54.736Z,85
2023-01-11T14:38:02.383Z,84
2023-01-11T14:40:15.991Z,84
2023-01-11T14:41:22.576Z,84
2023-01-11T14:42:33.641Z,84
2023-01-11T14:43:36.833Z,84
2023-01-11T14:44:43.872Z,84
2023-01-11T14:45:50.964Z,84
2023-01-11T14:46:57.635Z,84
2023-01-11T14:48:04.739Z,84
2023-01-11T14:49:11.824Z,84
2023-01-11T14:50:19.414Z,84
2023-01-11T14:51:32.639Z,84
2023-01-11T14:52:39.583Z,84
2023-01-11T14:53:39.809Z,84
2023-01-11T14:54:47.373Z,84
2023-01-11T14:55:53.899Z,84
2023-01-11T14:57:00.980Z,84
2023-01-11T14:58:07.609Z,84
2023-01-11T14:59:14.701Z,84
2023-01-11T15:00:21.844Z,84
2023-01-11T15:01:28.993Z,83
2023-01-11T15:02:36.033Z,83
2023-01-11T15:03:42.701Z,83
2023-01-11T15:04:49.792Z,83
2023-01-11T15:05:56.862Z,82
2023-01-11T15:08:10.993Z,82
2023-01-11T15:09:17.621Z,82
2023-01-11T15:10:24.815Z,82
2023-01-11T15:11:31.866Z,82
2023-01-11T15:12:38.931Z,82
2023-01-11T15:13:45.649Z,82
2023-01-11T15:14:52.664Z,83
2023-01-11T15:15:59.884Z,83
2023-01-11T15:17:06.893Z,83
2023-01-11T15:18:14.069Z,83
2023-01-11T15:19:21.021Z,83
2023-01-11T15:20:27.626Z,83
2023-01-11T15:21:34.823Z,83
2023-01-11T15:22:41.801Z,83
2023-01-11T15:23:49.204Z,83
2023-01-11T15:24:56.139Z,83
2023-01-11T15:26:02.672Z,83
2023-01-11T15:27:09.860Z,83
2023-01-11T15:28:16.939Z,83
2023-01-11T15:30:30.547Z,83
2023-01-11T15:31:37.874Z,84
2023-01-11T15:32:44.718Z,84
2023-01-11T15:33:52.010Z,84
2023-01-11T15:34:58.993Z,84
2023-01-11T15:36:05.605Z,84
2023-01-11T15:37:12.663Z,84
2023-01-11T15:38:19.857Z,83
2023-01-11T15:40:34.011Z,83
2023-01-11T15:41:41.632Z,83
2023-01-11T15:42:47.671Z,83
2023-01-11T15:43:54.846Z,84
2023-01-11T15:45:01.905Z,84
2023-01-11T15:46:09.022Z,84
2023-01-11T15:47:15.617Z,84
2023-01-11T15:48:22.769Z,84
2023-01-11T15:49:29.843Z,85
2023-01-11T15:50:36.890Z,85
2023-01-11T15:51:44.003Z,85
2023-01-11T15:52:50.641Z,85
2023-01-11T15:53:57.674Z,85
2023-01-11T15:55:04.898Z,85
2023-01-11T15:56:11.849Z,85
2023-01-11T15:57:19.047Z,85
2023-01-11T15:58:26.194Z,85
2023-01-11T15:59:32.730Z,85
2023-01-11T16:00:39.832Z,85
2023-01-11T16:01:46.951Z,85
2023-01-11T16:02:54.068Z,85
2023-01-11T16:04:01.101Z,86
2023-01-11T16:05:07.748Z,85
2023-01-11T16:06:15.308Z,85
2023-01-11T16:07:21.927Z,85
2023-01-11T16:08:29.114Z,85
2023-01-11T16:09:36.115Z,86
2023-01-11T16:10:42.715Z,86
2023-01-11T16:11:49.838Z,86
2023-01-11T16:12:56.951Z,86
2023-01-11T16:14:04.066Z,86
2023-01-11T16:15:10.615Z,86
2023-01-11T16:16:17.782Z,86
2023-01-11T16:17:24.873Z,86
2023-01-11T16:18:31.960Z,87
2023-01-11T16:19:39.057Z,87
2023-01-11T16:20:45.663Z,87
2023-01-11T16:21:52.746Z,87
2023-01-11T16:22:59.879Z,87
2023-01-11T16:24:07.032Z,87
2023-01-11T16:25:14.076Z,87
2023-01-11T16:26:20.584Z,87
2023-01-11T16:27:27.808Z,87
2023-01-11T16:28:34.885Z,87
2023-01-11T16:30:49.097Z,87
2023-01-11T16:31:55.892Z,87
2023-01-11T16:33:02.749Z,87
2023-01-11T16:34:09.917Z,87
2023-01-11T16:35:16.996Z,87
2023-01-11T16:36:24.088Z,87
2023-01-11T16:38:37.768Z,87
2023-01-11T16:39:44.889Z,87
2023-01-11T16:40:51.963Z,87
2023-01-11T16:41:59.056Z,87
2023-01-11T16:44:12.817Z,87
2023-01-11T16:45:19.875Z,87
2023-01-11T16:46:26.959Z,87
2023-01-11T16:47:34.100Z,87